Airfield :
LOGIN :

Register | Disclaimer

   EN    FR    IT 

 










Legend :    VFR   Marginal VFR   IFR   Intensive IFR   Very Intensive IFR
Visi :
Ceiling :
>= 8 km
>= 3000ft
5 to 8 km
1000 to 3000 ft
1500m to 5 km
500 to 1000 ft
800 to 1500m
200 to 500 ft
< 800m
< 200 ft
Symbols :   Thunderstorms  Fog  Heavy snow  Heavy precipitations  Wind > 20 kt
SIGMETs :     Misc.  Thunderstorms  Icing  Turbulence  Mountain Waves  Volcanic Ashes






- Airport Elevation : 218 ft


EGYD - RAF Cranwell

CURRENT METAR :
  • 041320Z 22019KT 9999 BKN028 BKN250 18/12 Q1012 NOSIG RMK BLU BLU

EXPIRED METARs :
  • 041250Z 22022KT 9999 SCT028 BKN250 18/12 Q1012 NOSIG RMK BLU BLU
  • 041220Z 21020KT 9999 FEW028 BKN250 18/12 Q1012 NOSIG RMK BLU BLU
  • 041150Z 22022KT 9999 FEW028 BKN250 18/12 Q1012 NOSIG RMK BLU BLU
  • 041120Z 22022KT 9999 FEW025 BKN250 19/12 Q1012 NOSIG RMK BLU BLU
  • 041050Z 21018KT 9999 FEW025 BKN250 18/12 Q1013 NOSIG RMK BLU BLU

TAF TAF EGYD
Valid from the 04 at 12:00 until the 04 at 18:00 UTC


041055Z 0412/0418 22018G28KT 9999 SCT025
BECMG 0415/0417 22012KT
TEMPO 0417/0418 SCT020



MET'MAP, your aeronautical weather chart ! - Copyright ORBIFLY December 2007 - Disclaimer

ORBIFLY MET'MAP TEAM :

Programming & Development : Alexandra Zaïnal
Original concept : Baudouin d'Aumeries
Technical & hardware support : Manuel Goepfert
Assistance : Marc-Olivier Méhu




SOURCES & CREDITS :

   NOAA